createdAt,value
2022-08-15T00:00:33.022Z,60.10
2022-08-15T00:03:10.051Z,60.27
2022-08-15T00:05:39.012Z,60.60
2022-08-15T00:08:50.306Z,60.48
2022-08-15T00:11:18.165Z,61.65
2022-08-15T00:13:59.792Z,61.34
2022-08-15T00:16:33.839Z,61.47
2022-08-15T00:19:05.340Z,62.26
2022-08-15T00:21:33.327Z,61.81
2022-08-15T00:24:00.853Z,62.19
2022-08-15T00:26:54.119Z,62.30
2022-08-15T00:29:17.267Z,62.40
2022-08-15T00:31:44.904Z,62.62
2022-08-15T00:34:38.958Z,62.89
2022-08-15T00:37:05.159Z,63.19
2022-08-15T00:39:37.544Z,62.95
2022-08-15T00:42:14.707Z,63.70
2022-08-15T00:44:52.241Z,63.92
2022-08-15T00:47:22.533Z,64.60
2022-08-15T00:50:02.997Z,64.40
2022-08-15T00:52:39.683Z,65.79
2022-08-15T00:55:21.603Z,64.22
2022-08-15T00:57:58.797Z,64.65
2022-08-15T01:00:37.729Z,65.50
2022-08-15T01:03:14.265Z,65.54
2022-08-15T01:05:47.807Z,65.31
2022-08-15T01:08:18.797Z,65.77
2022-08-15T01:10:59.967Z,66.21
2022-08-15T01:14:02.503Z,66.60
2022-08-15T01:16:33.987Z,66.92
2022-08-15T01:19:24.662Z,67.09
2022-08-15T01:22:15.190Z,68.22
2022-08-15T01:26:40.868Z,67.66
2022-08-15T01:28:31.271Z,68.50
2022-08-15T01:31:04.356Z,68.56
2022-08-15T01:33:34.402Z,69.34
2022-08-15T01:36:04.595Z,69.49
2022-08-15T01:39:11.322Z,69.35
2022-08-15T01:41:54.740Z,70.24
2022-08-15T01:44:33.421Z,70.83
2022-08-15T01:47:13.794Z,70.29
2022-08-15T01:49:46.887Z,70.21
2022-08-15T01:52:58.762Z,70.51
2022-08-15T01:55:23.992Z,71.34
2022-08-15T01:57:51.139Z,71.88
2022-08-15T02:00:22.037Z,71.94
2022-08-15T02:02:54.442Z,72.34
2022-08-15T02:05:22.117Z,72.59
2022-08-15T02:08:35.928Z,72.93
2022-08-15T02:10:37.705Z,73.58
2022-08-15T02:13:12.777Z,73.54
2022-08-15T02:15:43.737Z,73.13
2022-08-15T02:18:19.535Z,73.95
2022-08-15T02:20:48.354Z,73.92
2022-08-15T02:23:20.219Z,74.95
2022-08-15T02:25:49.469Z,74.98
2022-08-15T02:28:35.142Z,75.53
2022-08-15T02:31:11.598Z,75.49
2022-08-15T02:33:43.370Z,75.97
2022-08-15T02:36:14.938Z,75.60
2022-08-15T02:39:00.182Z,75.96
2022-08-15T02:41:37.837Z,76.25
2022-08-15T02:44:13.306Z,77.16
2022-08-15T02:47:03.283Z,76.38
2022-08-15T02:49:35.626Z,76.90
2022-08-15T02:52:20.556Z,77.08
2022-08-15T02:54:59.329Z,76.64
2022-08-15T02:57:30.452Z,76.42
2022-08-15T02:59:58.035Z,76.33
2022-08-15T03:02:29.707Z,77.15
2022-08-15T03:05:01.114Z,77.05
2022-08-15T03:07:28.763Z,77.60
2022-08-15T03:09:57.332Z,77.53
2022-08-15T03:12:32.040Z,78.18
2022-08-15T03:15:04.685Z,78.82
2022-08-15T03:17:35.123Z,78.67
2022-08-15T03:20:05.434Z,79.27
2022-08-15T03:22:47.471Z,79.09
2022-08-15T03:25:16.615Z,80.19
2022-08-15T03:27:45.386Z,79.89
2022-08-15T03:30:16.505Z,80.20
2022-08-15T03:32:54.023Z,79.96
2022-08-15T03:35:27.544Z,80.46
2022-08-15T03:37:59.986Z,80.25
2022-08-15T03:40:30.204Z,80.42
2022-08-15T03:43:02.577Z,80.59
2022-08-15T03:45:42.254Z,80.98
2022-08-15T03:48:10.104Z,81.29
2022-08-15T03:50:50.419Z,81.45
2022-08-15T03:53:28.528Z,81.37
2022-08-15T03:56:00.893Z,81.07
2022-08-15T03:58:32.607Z,81.64
2022-08-15T04:01:09.295Z,81.88
2022-08-15T04:03:44.458Z,81.94
2022-08-15T04:06:16.617Z,81.92
2022-08-15T04:09:13.022Z,82.22
2022-08-15T04:11:35.486Z,81.35
2022-08-15T04:14:32.536Z,82.33
2022-08-15T04:17:02.384Z,82.79
2022-08-15T04:19:46.734Z,82.79
2022-08-15T04:22:37.762Z,82.57
2022-08-15T04:25:38.405Z,83.35
2022-08-15T04:28:28.435Z,82.77
2022-08-15T04:30:56.800Z,83.16
2022-08-15T04:34:01.344Z,83.36
2022-08-15T04:36:18.784Z,83.05
2022-08-15T04:38:50.207Z,82.90
2022-08-15T04:41:35.871Z,83.28
2022-08-15T04:44:05.642Z,83.18
2022-08-15T04:46:32.749Z,82.82
2022-08-15T04:49:00.245Z,82.92
2022-08-15T04:51:35.366Z,82.56
2022-08-15T04:54:04.001Z,82.38
2022-08-15T04:56:47.582Z,82.89
2022-08-15T04:59:34.073Z,82.99
2022-08-15T05:02:04.378Z,81.82
2022-08-15T05:04:50.144Z,81.43
2022-08-15T05:07:18.324Z,81.76
2022-08-15T05:09:59.889Z,81.30
2022-08-15T05:12:33.984Z,81.00
2022-08-15T05:15:02.988Z,81.02
2022-08-15T05:17:56.877Z,81.27
2022-08-15T05:20:18.895Z,81.41
2022-08-15T05:23:04.127Z,81.12
2022-08-15T05:25:41.656Z,81.13
2022-08-15T05:28:29.435Z,81.33
2022-08-15T05:31:01.267Z,80.61
2022-08-15T05:33:56.262Z,80.90
2022-08-15T05:36:28.143Z,80.96
2022-08-15T05:39:13.267Z,80.75
2022-08-15T05:42:12.191Z,80.18
2022-08-15T05:45:08.635Z,79.86
2022-08-15T05:47:44.863Z,79.24
2022-08-15T05:50:29.095Z,78.31
2022-08-15T05:53:05.764Z,78.07
2022-08-15T05:55:44.956Z,77.95
2022-08-15T05:58:37.770Z,77.86
2022-08-15T06:01:17.358Z,77.90
2022-08-15T06:03:50.560Z,77.60
2022-08-15T06:06:25.912Z,77.85
2022-08-15T06:09:04.400Z,77.71
2022-08-15T06:11:46.085Z,77.55
2022-08-15T06:14:46.247Z,77.52
2022-08-15T06:17:25.395Z,77.38
2022-08-15T06:19:53.743Z,76.08
2022-08-15T06:22:26.225Z,75.95
2022-08-15T06:25:09.427Z,74.96
2022-08-15T06:27:57.918Z,74.59
2022-08-15T06:30:30.870Z,74.65
2022-08-15T06:33:07.448Z,73.85
2022-08-15T06:35:45.701Z,73.76
2022-08-15T06:38:43.563Z,73.08
2022-08-15T06:41:32.071Z,72.21
2022-08-15T06:44:00.069Z,72.12
2022-08-15T06:46:44.243Z,71.84
2022-08-15T06:49:20.398Z,70.98
2022-08-15T06:51:51.534Z,70.71
2022-08-15T06:54:36.451Z,70.75
2022-08-15T06:57:17.408Z,70.24
2022-08-15T07:00:00.737Z,70.26
2022-08-15T07:02:46.361Z,69.44
2022-08-15T07:05:30.358Z,69.47
2022-08-15T07:08:20.983Z,69.16
2022-08-15T07:10:52.919Z,68.53
2022-08-15T07:13:27.474Z,67.77
2022-08-15T07:16:19.834Z,67.42
2022-08-15T07:18:53.192Z,66.87
2022-08-15T07:21:23.401Z,66.52
2022-08-15T07:24:34.006Z,65.88
2022-08-15T07:27:10.729Z,65.17
2022-08-15T07:29:40.340Z,64.83
2022-08-15T07:32:33.312Z,64.67
2022-08-15T07:35:10.633Z,64.41
2022-08-15T07:37:42.227Z,64.04
2022-08-15T07:40:28.599Z,63.59
2022-08-15T07:43:00.894Z,63.28
2022-08-15T07:45:41.332Z,63.19
2022-08-15T07:48:26.048Z,63.06
2022-08-15T07:51:15.656Z,63.01
2022-08-15T07:54:06.002Z,62.59
2022-08-15T07:56:38.713Z,61.22
2022-08-15T07:59:24.163Z,60.71
2022-08-15T08:02:01.941Z,60.33
2022-08-15T08:04:37.759Z,60.39
2022-08-15T08:07:34.159Z,60.25
2022-08-15T08:11:03.280Z,59.53
2022-08-15T08:13:43.551Z,58.78
2022-08-15T08:16:22.724Z,59.13
2022-08-15T08:19:04.423Z,58.45
2022-08-15T08:21:40.382Z,58.36
2022-08-15T08:24:27.980Z,58.35
2022-08-15T08:27:05.362Z,58.22
2022-08-15T08:30:42.689Z,58.04
2022-08-15T08:33:19.176Z,57.06
2022-08-15T08:36:36.560Z,57.00
2022-08-15T08:39:23.708Z,56.72
2022-08-15T08:41:59.656Z,56.55
2022-08-15T08:44:51.946Z,56.47
2022-08-15T08:47:45.884Z,56.47
2022-08-15T08:50:35.050Z,56.02
2022-08-15T08:53:31.262Z,55.78
2022-08-15T08:56:32.453Z,55.49
2022-08-15T08:59:18.259Z,54.91
2022-08-15T09:01:50.204Z,54.32
2022-08-15T09:04:20.522Z,54.03
2022-08-15T09:06:49.696Z,53.72
2022-08-15T09:09:24.654Z,53.23
2022-08-15T09:12:29.340Z,52.63
2022-08-15T09:15:14.774Z,52.87
2022-08-15T09:17:59.688Z,53.25
2022-08-15T09:20:35.420Z,52.82
2022-08-15T09:23:13.670Z,52.25
2022-08-15T09:26:20.260Z,51.54
2022-08-15T09:29:18.859Z,51.19
2022-08-15T09:32:01.626Z,51.27
2022-08-15T09:34:44.095Z,51.05
2022-08-15T09:37:34.185Z,50.40
2022-08-15T09:40:57.620Z,50.07
2022-08-15T09:43:32.630Z,49.88
2022-08-15T09:46:42.059Z,49.18
2022-08-15T09:49:41.159Z,47.87
2022-08-15T09:52:44.335Z,47.30
2022-08-15T09:55:32.295Z,47.80
2022-08-15T09:58:23.612Z,47.53
2022-08-15T10:01:10.712Z,47.15
2022-08-15T10:03:48.214Z,47.38
2022-08-15T10:06:34.112Z,47.17
2022-08-15T10:09:33.429Z,46.91
2022-08-15T10:12:07.736Z,46.03
2022-08-15T10:14:40.746Z,46.44
2022-08-15T10:17:34.669Z,46.59
2022-08-15T10:20:18.686Z,46.65
2022-08-15T10:22:57.313Z,46.83
2022-08-15T10:25:37.833Z,45.99
2022-08-15T10:28:36.716Z,45.38
2022-08-15T10:31:02.316Z,45.09
2022-08-15T10:33:36.949Z,43.82
2022-08-15T10:36:29.798Z,43.91
2022-08-15T10:39:10.105Z,43.44
2022-08-15T10:42:22.335Z,43.50
2022-08-15T10:45:17.148Z,41.99
2022-08-15T10:48:13.466Z,42.37
2022-08-15T10:51:09.856Z,41.94
2022-08-15T10:53:50.077Z,42.05
2022-08-15T10:57:06.037Z,42.17
2022-08-15T10:59:17.529Z,41.44
2022-08-15T11:01:45.986Z,41.07
2022-08-15T11:04:50.011Z,41.49
2022-08-15T11:07:35.929Z,40.68
2022-08-15T11:10:17.087Z,39.96
2022-08-15T11:12:49.603Z,39.70
2022-08-15T11:15:22.842Z,39.78
2022-08-15T11:18:21.630Z,39.50
2022-08-15T11:20:54.087Z,39.61
2022-08-15T11:23:32.661Z,39.36
2022-08-15T11:26:01.163Z,38.68
2022-08-15T11:28:41.375Z,37.87
2022-08-15T11:31:20.322Z,37.44
2022-08-15T11:33:50.946Z,37.53
2022-08-15T11:36:20.779Z,37.53
2022-08-15T11:39:15.481Z,37.47
2022-08-15T11:41:50.812Z,37.53
2022-08-15T11:44:31.038Z,37.21
2022-08-15T11:46:58.286Z,36.42
2022-08-15T11:49:34.935Z,36.37
2022-08-15T11:52:41.752Z,36.88
2022-08-15T11:55:24.152Z,36.92
2022-08-15T11:58:00.194Z,36.59
2022-08-15T12:00:49.919Z,35.63
2022-08-15T12:06:29.098Z,34.38
2022-08-15T12:09:08.480Z,33.32
2022-08-15T12:11:44.437Z,33.04
2022-08-15T12:13:11.634Z,35.04
2022-08-15T12:14:28.202Z,33.99
2022-08-15T12:17:03.849Z,33.78
2022-08-15T12:20:25.297Z,32.35
2022-08-15T12:22:52.845Z,33.09
2022-08-15T12:25:37.672Z,32.03
2022-08-15T12:28:24.788Z,31.99
2022-08-15T12:30:58.077Z,31.57
2022-08-15T12:33:26.114Z,32.04
2022-08-15T12:36:01.423Z,32.81
2022-08-15T12:38:32.679Z,33.15
2022-08-15T12:42:44.816Z,33.95
2022-08-15T12:43:50.182Z,34.46
2022-08-15T12:46:20.113Z,35.13
2022-08-15T12:48:57.586Z,35.60
2022-08-15T12:51:29.217Z,35.60
2022-08-15T12:53:57.917Z,36.02
2022-08-15T12:56:43.931Z,35.35
2022-08-15T12:59:14.661Z,35.92
2022-08-15T13:01:57.437Z,35.45
2022-08-15T13:04:41.030Z,34.73
2022-08-15T13:07:15.869Z,34.43
2022-08-15T13:10:00.520Z,34.40
2022-08-15T13:12:47.440Z,35.00
2022-08-15T13:15:14.637Z,35.05
2022-08-15T13:17:57.446Z,35.18
2022-08-15T13:20:47.059Z,35.30
2022-08-15T13:24:11.398Z,35.60
2022-08-15T13:26:30.826Z,35.56
2022-08-15T13:29:01.245Z,35.44
2022-08-15T13:31:29.779Z,34.91
2022-08-15T13:33:59.671Z,34.98
2022-08-15T13:36:28.996Z,35.23
2022-08-15T13:39:00.161Z,34.94
2022-08-15T13:41:48.022Z,34.98
2022-08-15T13:44:30.179Z,34.95
2022-08-15T13:47:02.518Z,35.16
2022-08-15T13:49:38.353Z,33.32
2022-08-15T13:52:46.161Z,32.67
2022-08-15T13:54:52.914Z,32.48
2022-08-15T13:57:28.963Z,31.99
2022-08-15T13:59:57.692Z,32.85
2022-08-15T14:02:36.326Z,32.26
2022-08-15T14:05:07.558Z,31.75
2022-08-15T14:08:23.521Z,31.79
2022-08-15T14:11:00.288Z,28.98
2022-08-15T14:13:18.460Z,23.68
2022-08-15T14:16:09.204Z,20.66
2022-08-15T14:18:50.177Z,20.38
2022-08-15T14:21:26.723Z,22.41
2022-08-15T14:24:00.702Z,24.60
2022-08-15T14:27:06.922Z,26.72
2022-08-15T14:29:33.559Z,25.08
2022-08-15T14:32:01.885Z,20.83
2022-08-15T14:34:57.622Z,17.46
2022-08-15T14:37:25.711Z,15.83
2022-08-15T14:39:53.736Z,14.20
2022-08-15T14:42:30.210Z,13.05
2022-08-15T14:45:00.274Z,13.03
2022-08-15T14:47:31.025Z,12.31
2022-08-15T14:50:54.653Z,11.91
2022-08-15T14:52:53.495Z,11.81
2022-08-15T14:55:22.294Z,10.95
2022-08-15T14:58:00.125Z,11.60
2022-08-15T15:00:32.607Z,12.20
2022-08-15T15:03:02.463Z,14.97
2022-08-15T15:06:05.353Z,17.55
2022-08-15T15:08:20.336Z,16.07
2022-08-15T15:10:48.712Z,14.94
2022-08-15T15:13:17.521Z,15.02
2022-08-15T15:16:13.578Z,15.83
2022-08-15T15:18:45.675Z,16.18
2022-08-15T15:21:26.444Z,15.31
2022-08-15T15:23:54.390Z,17.08
2022-08-15T15:26:36.631Z,17.26
2022-08-15T15:29:06.895Z,16.08
2022-08-15T15:31:34.480Z,15.39
2022-08-15T15:34:14.729Z,14.41
2022-08-15T15:36:45.614Z,13.63
2022-08-15T15:39:19.890Z,12.31
2022-08-15T15:42:16.394Z,11.95
2022-08-15T15:44:46.606Z,11.04
2022-08-15T15:47:24.970Z,11.04
2022-08-15T15:49:55.307Z,13.70
2022-08-15T15:52:24.803Z,16.20
2022-08-15T15:55:04.993Z,18.95
2022-08-15T15:58:02.361Z,21.02
2022-08-15T16:00:25.233Z,23.16
2022-08-15T16:03:01.693Z,24.69
2022-08-15T16:06:04.163Z,25.99
2022-08-15T16:08:32.866Z,26.61
2022-08-15T16:11:42.333Z,28.45
2022-08-15T16:14:32.814Z,30.31
2022-08-15T16:17:06.727Z,30.22
2022-08-15T16:19:37.064Z,31.65
2022-08-15T16:22:19.927Z,32.19
2022-08-15T16:24:54.907Z,33.14
2022-08-15T16:27:33.384Z,34.79
2022-08-15T16:30:10.562Z,37.66
2022-08-15T16:33:12.497Z,40.39
2022-08-15T16:35:43.223Z,44.61
2022-08-15T16:39:05.137Z,46.45
2022-08-15T16:41:23.141Z,49.28
2022-08-15T16:43:54.389Z,52.53
2022-08-15T16:46:27.804Z,56.14
2022-08-15T16:49:24.359Z,58.27
2022-08-15T16:52:09.436Z,60.49
2022-08-15T16:54:58.350Z,62.59
2022-08-15T16:57:52.701Z,66.16
2022-08-15T17:00:54.299Z,71.27
2022-08-15T17:03:34.630Z,77.51
2022-08-15T17:06:22.966Z,85.12
2022-08-15T17:09:06.258Z,87.80
2022-08-15T17:11:42.027Z,92.47
2022-08-15T17:14:48.341Z,96.19
2022-08-15T17:17:52.016Z,99.19
2022-08-15T17:20:24.531Z,100.00
2022-08-15T17:23:06.640Z,99.87
2022-08-15T17:25:41.890Z,99.76
2022-08-15T17:28:37.822Z,100.00
2022-08-15T17:48:29.941Z,100.00
2022-08-15T17:51:11.380Z,100.00
2022-08-15T17:53:51.941Z,100.00
2022-08-15T17:56:44.600Z,100.00
2022-08-15T17:59:15.646Z,100.00
2022-08-15T18:01:43.061Z,100.00
2022-08-15T18:04:10.871Z,100.00
2022-08-15T18:06:39.851Z,100.00
2022-08-15T18:09:11.053Z,100.00
2022-08-15T18:11:40.843Z,100.00
2022-08-15T18:14:39.410Z,100.00
2022-08-15T18:17:05.679Z,100.00
2022-08-15T18:19:36.429Z,100.00
2022-08-15T18:22:22.913Z,100.00
2022-08-15T18:24:59.784Z,100.00
2022-08-15T18:27:54.496Z,100.00
2022-08-15T18:30:25.138Z,100.00
2022-08-15T18:33:04.569Z,100.00
2022-08-15T18:35:39.208Z,100.00
2022-08-15T18:38:16.104Z,100.00
2022-08-15T18:41:09.983Z,100.00
2022-08-15T18:43:40.451Z,100.00
2022-08-15T18:46:20.344Z,100.00
2022-08-15T18:48:58.942Z,100.00
2022-08-15T18:51:55.183Z,100.00
2022-08-15T18:54:47.924Z,100.00
2022-08-15T18:57:25.036Z,100.00
2022-08-15T19:00:16.873Z,100.00
2022-08-15T19:02:49.239Z,100.00
2022-08-15T19:05:19.513Z,100.00
2022-08-15T19:07:58.055Z,100.00
2022-08-15T19:10:40.709Z,100.00
2022-08-15T19:13:16.957Z,100.00
2022-08-15T19:15:52.352Z,100.00
2022-08-15T19:21:23.106Z,100.00
2022-08-15T19:24:00.257Z,100.00
2022-08-15T19:24:27.208Z,100.00
2022-08-15T19:27:20.385Z,100.00
2022-08-15T19:29:58.939Z,100.00
2022-08-15T19:32:38.930Z,100.00
2022-08-15T19:35:15.335Z,100.00
2022-08-15T19:37:51.904Z,100.00
2022-08-15T19:40:39.310Z,100.00
2022-08-15T19:43:17.064Z,100.00
2022-08-15T19:46:35.351Z,100.00
2022-08-15T19:49:34.254Z,100.00
2022-08-15T19:52:08.414Z,100.00
2022-08-15T19:55:22.071Z,100.00
2022-08-15T19:57:51.433Z,100.00
2022-08-15T20:00:30.457Z,100.00
2022-08-15T20:03:08.886Z,100.00
2022-08-15T20:06:05.981Z,100.00
2022-08-15T20:08:53.732Z,100.00
2022-08-15T20:11:27.413Z,100.00
2022-08-15T20:14:47.114Z,100.00
2022-08-15T20:17:17.571Z,100.00
2022-08-15T20:19:48.127Z,100.00
2022-08-15T20:22:34.815Z,100.00
2022-08-15T20:25:20.160Z,100.00
2022-08-15T20:27:53.813Z,100.00
2022-08-15T20:30:27.111Z,100.00
2022-08-15T20:33:17.504Z,100.00
2022-08-15T20:35:56.062Z,100.00
2022-08-15T20:38:28.426Z,100.00
2022-08-15T20:41:11.255Z,100.00
2022-08-15T20:43:44.665Z,100.00
2022-08-15T20:46:45.024Z,100.00
2022-08-15T20:49:24.738Z,100.00
2022-08-15T20:52:39.353Z,100.00
2022-08-15T20:54:56.434Z,100.00
2022-08-15T20:57:31.358Z,100.00
2022-08-15T20:59:59.829Z,100.00
2022-08-15T21:02:42.202Z,100.00
2022-08-15T21:05:17.357Z,100.00
2022-08-15T21:07:55.789Z,100.00
2022-08-15T21:10:37.615Z,100.00
2022-08-15T21:13:45.703Z,100.00
2022-08-15T21:16:44.052Z,100.00
2022-08-15T21:19:25.226Z,100.00
2022-08-15T21:21:52.370Z,100.00
2022-08-15T21:24:30.545Z,100.00
2022-08-15T21:27:17.791Z,100.00
2022-08-15T21:29:47.085Z,100.00
2022-08-15T21:32:32.105Z,100.00
2022-08-15T21:35:35.282Z,100.00
2022-08-15T21:38:04.234Z,100.00
2022-08-15T21:40:37.948Z,100.00
2022-08-15T21:43:10.192Z,100.00
2022-08-15T21:45:41.316Z,100.00
2022-08-15T21:48:35.081Z,100.00
2022-08-15T21:51:36.661Z,100.00
2022-08-15T21:54:18.642Z,100.00
2022-08-15T21:57:00.836Z,100.00
2022-08-15T22:00:20.008Z,100.00
2022-08-15T22:02:48.240Z,100.00
2022-08-15T22:05:20.845Z,100.00
2022-08-15T22:08:11.493Z,100.00
2022-08-15T22:10:38.719Z,100.00
2022-08-15T22:13:06.020Z,100.00
2022-08-15T22:15:35.907Z,100.00
2022-08-15T22:18:27.942Z,100.00
2022-08-15T22:20:51.725Z,100.00
2022-08-15T22:23:19.642Z,100.00
2022-08-15T22:26:03.276Z,100.00
2022-08-15T22:29:00.253Z,100.00
2022-08-15T22:31:44.599Z,100.00
2022-08-15T22:34:16.255Z,100.00
2022-08-15T22:36:46.749Z,100.00
2022-08-15T22:39:16.747Z,100.00
2022-08-15T22:41:53.052Z,100.00
2022-08-15T22:44:33.819Z,100.00
2022-08-15T22:47:02.546Z,100.00
2022-08-15T22:49:36.755Z,100.00
2022-08-15T22:52:19.339Z,100.00
2022-08-15T22:54:49.776Z,100.00
2022-08-15T22:57:21.949Z,100.00
2022-08-15T22:59:57.360Z,100.00
2022-08-15T23:02:30.829Z,100.00
2022-08-15T23:05:02.682Z,100.00
2022-08-15T23:07:48.490Z,100.00
2022-08-15T23:10:34.837Z,100.00
2022-08-15T23:13:08.921Z,100.00
2022-08-15T23:15:46.351Z,100.00
2022-08-15T23:18:47.557Z,100.00
2022-08-15T23:21:16.140Z,100.00
2022-08-15T23:23:54.424Z,100.00
2022-08-15T23:26:30.503Z,100.00
2022-08-15T23:29:01.854Z,100.00
2022-08-15T23:31:37.324Z,100.00
2022-08-15T23:34:16.739Z,100.00
2022-08-15T23:37:06.905Z,100.00
2022-08-15T23:39:46.542Z,100.00
2022-08-15T23:42:27.821Z,100.00
2022-08-15T23:44:58.770Z,100.00
2022-08-15T23:47:27.883Z,100.00
2022-08-15T23:49:58.199Z,100.00
2022-08-15T23:52:29.525Z,100.00
2022-08-15T23:55:12.169Z,100.00
2022-08-15T23:57:43.339Z,100.00
